Terminal Aerodrome Forecast
Issued by NWS

Current Version | Previous Version | Graphics & Text | Print | Product List | Glossary On
Versions: 1 2 3 4 5 6 7 8 9 10 11 12 13 14 15 16 17 18 19
000
FTUS41 KPBZ 011120
TAFHLG
TAF
KHLG 011120Z 0112/0212 26006KT P6SM SCT080
     FM011600 29010G15KT P6SM SCT060
     FM020000 26003KT P6SM SCT100=

USA.gov is the U.S. government's official web portal to all federal, state and local government web resources and services.